createdAt,value
2023-04-12T00:00:48.567Z,100026.34
2023-04-12T00:03:21.371Z,100022.00
2023-04-12T00:05:48.676Z,100020.31
2023-04-12T00:08:16.601Z,100008.09
2023-04-12T00:10:43.219Z,99998.19
2023-04-12T00:13:09.653Z,99993.84
2023-04-12T00:15:36.140Z,99991.97
2023-04-12T00:18:02.660Z,99986.81
2023-04-12T00:20:29.284Z,99976.22
2023-04-12T00:22:57.403Z,99975.41
2023-04-12T00:25:23.786Z,99986.16
2023-04-12T00:27:50.374Z,99975.41
2023-04-12T00:30:17.419Z,99980.09
2023-04-12T00:32:43.892Z,99972.06
2023-04-12T00:35:10.332Z,99978.44
2023-04-12T00:37:38.375Z,99974.06
2023-04-12T00:40:07.840Z,99973.25
2023-04-12T00:42:35.705Z,99972.41
2023-04-12T00:45:02.116Z,99968.06
2023-04-12T00:47:29.515Z,99955.66
2023-04-12T00:49:56.816Z,99945.94
2023-04-12T00:52:23.773Z,99952.13
2023-04-12T00:54:51.842Z,99945.13
2023-04-12T00:57:18.293Z,99929.19
2023-04-12T00:59:44.770Z,99928.34
2023-04-12T01:02:11.493Z,99935.56
2023-04-12T01:04:38.663Z,99922.31
2023-04-12T01:07:32.628Z,99913.25
2023-04-12T01:10:17.817Z,99923.16
2023-04-12T01:13:12.467Z,99906.06
2023-04-12T01:15:48.567Z,99901.69
2023-04-12T01:18:19.759Z,99906.06
2023-04-12T01:21:01.319Z,99892.81
2023-04-12T01:23:58.822Z,99874.84
2023-04-12T01:26:38.519Z,99886.41
2023-04-12T01:29:10.899Z,99874.84
2023-04-12T01:31:41.242Z,99874.00
2023-04-12T01:34:11.674Z,99866.78
2023-04-12T01:36:38.841Z,99862.44
2023-04-12T01:39:06.593Z,99856.25
2023-04-12T01:41:32.993Z,99856.25
2023-04-12T01:43:59.635Z,99850.03
2023-04-12T01:46:26.227Z,99850.03
2023-04-12T01:48:53.684Z,99847.34
2023-04-12T01:51:49.628Z,99850.03
2023-04-12T01:54:27.507Z,99849.03
2023-04-12T01:57:00.806Z,99843.66
2023-04-12T01:59:31.616Z,99845.31
2023-04-12T02:01:58.643Z,99843.66
2023-04-12T02:04:27.617Z,99839.28
2023-04-12T02:06:54.226Z,99829.59
2023-04-12T02:09:22.406Z,99828.56
2023-04-12T02:11:49.667Z,99827.72
2023-04-12T02:14:16.482Z,99823.19
2023-04-12T02:16:44.641Z,99815.16
2023-04-12T02:19:14.077Z,99814.16
2023-04-12T02:21:45.555Z,99795.38
2023-04-12T02:24:12.781Z,99799.03
2023-04-12T02:26:40.094Z,99789.34
2023-04-12T02:29:10.140Z,99784.81
2023-04-12T02:31:38.801Z,99778.59
2023-04-12T02:34:05.798Z,99772.22
2023-04-12T02:36:32.197Z,99765.19
2023-04-12T02:38:58.752Z,99750.75
2023-04-12T02:41:25.290Z,99754.28
2023-04-12T02:43:51.913Z,99745.38
2023-04-12T02:46:27.192Z,99731.97
2023-04-12T02:48:54.007Z,99728.28
2023-04-12T02:51:20.435Z,99724.78
2023-04-12T02:53:46.883Z,99722.91
2023-04-12T02:56:13.322Z,99721.88
2023-04-12T02:58:39.849Z,99714.66
2023-04-12T03:01:07.585Z,99712.84
2023-04-12T03:03:35.632Z,99709.13
2023-04-12T03:06:02.452Z,99707.09
2023-04-12T03:08:28.901Z,99698.00
2023-04-12T03:10:55.705Z,99694.13
2023-04-12T03:13:22.366Z,99691.28
2023-04-12T03:15:51.726Z,99681.16
2023-04-12T03:18:20.725Z,99674.78
2023-04-12T03:20:47.788Z,99678.13
2023-04-12T03:23:14.342Z,99658.13
2023-04-12T03:25:41.115Z,99651.75
2023-04-12T03:28:08.539Z,99648.88
2023-04-12T03:30:34.934Z,99645.00
2023-04-12T03:33:01.686Z,99630.72
2023-04-12T03:35:28.135Z,99621.66
2023-04-12T03:37:54.557Z,99623.31
2023-04-12T03:40:21.460Z,99620.63
2023-04-12T03:42:47.838Z,99626.66
2023-04-12T03:45:14.193Z,99613.22
2023-04-12T03:47:40.633Z,99609.50
2023-04-12T03:52:37.390Z,99583.31
2023-04-12T03:55:05.713Z,99568.84
2023-04-12T03:57:32.087Z,99570.53
2023-04-12T03:59:58.524Z,99566.81
2023-04-12T04:02:25.479Z,99556.91
2023-04-12T04:04:52.114Z,99548.69
2023-04-12T04:07:18.522Z,99537.94
2023-04-12T04:09:44.960Z,99532.56
2023-04-12T04:12:11.286Z,99521.81
2023-04-12T04:14:37.629Z,99504.06
2023-04-12T04:17:04.068Z,99521.19
2023-04-12T04:19:30.538Z,99508.78
2023-04-12T04:21:56.950Z,99503.59
2023-04-12T04:24:25.176Z,99508.16
2023-04-12T04:26:54.424Z,99500.91
2023-04-12T04:29:20.957Z,99508.16
2023-04-12T04:31:47.530Z,99502.78
2023-04-12T04:34:14.150Z,99501.75
2023-04-12T04:36:41.512Z,99489.78
2023-04-12T04:39:07.937Z,99487.97
2023-04-12T04:41:34.977Z,99487.75
2023-04-12T04:44:01.454Z,99483.03
2023-04-12T04:46:30.558Z,99474.78
2023-04-12T04:48:56.958Z,99478.94
2023-04-12T04:51:23.411Z,99467.00
2023-04-12T04:53:49.862Z,99468.63
2023-04-12T04:56:16.430Z,99461.22
2023-04-12T04:58:42.774Z,99456.69
2023-04-12T05:01:09.304Z,99452.78
2023-04-12T05:03:37.262Z,99441.00
2023-04-12T05:06:04.019Z,99432.56
2023-04-12T05:08:30.661Z,99434.22
2023-04-12T05:10:57.488Z,99428.66
2023-04-12T05:13:24.142Z,99424.97
2023-04-12T05:15:50.998Z,99425.78
2023-04-12T05:18:18.148Z,99422.06
2023-04-12T05:20:45.753Z,99420.22
2023-04-12T05:23:12.148Z,99415.69
2023-04-12T05:25:44.198Z,99415.47
2023-04-12T05:28:14.047Z,99417.31
2023-04-12T05:30:40.758Z,99413.81
2023-04-12T05:33:07.170Z,99401.44
2023-04-12T05:35:33.630Z,99401.44
2023-04-12T05:38:00.170Z,99396.88
2023-04-12T05:40:26.537Z,99399.34
2023-04-12T05:42:53.950Z,99400.22
2023-04-12T05:45:20.365Z,99389.25
2023-04-12T05:47:46.916Z,99391.53
2023-04-12T05:50:13.334Z,99389.31
2023-04-12T05:52:39.869Z,99385.41
2023-04-12T05:55:06.614Z,99376.13
2023-04-12T05:57:33.463Z,99373.03
2023-04-12T05:59:59.897Z,99368.28
2023-04-12T06:02:27.411Z,99368.09
2023-04-12T06:04:55.843Z,99371.19
2023-04-12T06:07:22.379Z,99370.81
2023-04-12T06:09:49.664Z,99363.38
2023-04-12T06:12:16.431Z,99364.03
2023-04-12T06:14:42.803Z,99355.78
2023-04-12T06:17:09.231Z,99359.13
2023-04-12T06:19:35.876Z,99355.38
2023-04-12T06:22:02.331Z,99348.78
2023-04-12T06:24:28.799Z,99339.69
2023-04-12T06:26:55.819Z,99335.13
2023-04-12T06:29:22.147Z,99333.91
2023-04-12T06:31:48.872Z,99332.88
2023-04-12T06:34:15.616Z,99328.53
2023-04-12T06:36:43.451Z,99325.66
2023-04-12T06:39:11.994Z,99317.59
2023-04-12T06:41:38.500Z,99313.03
2023-04-12T06:44:05.158Z,99305.19
2023-04-12T06:46:31.943Z,99308.69
2023-04-12T06:48:58.821Z,99304.34
2023-04-12T06:51:25.561Z,99302.50
2023-04-12T06:53:51.903Z,99298.97
2023-04-12T06:56:18.734Z,99297.31
2023-04-12T06:58:45.889Z,99293.59
2023-04-12T07:01:14.581Z,99286.56
2023-04-12T07:03:41.207Z,99266.94
2023-04-12T07:06:17.668Z,99268.78
2023-04-12T07:08:50.704Z,99259.69
2023-04-12T07:11:21.650Z,99260.50
2023-04-12T07:13:48.993Z,99251.63
2023-04-12T07:16:15.680Z,99252.44
2023-04-12T07:18:42.160Z,99247.91
2023-04-12T07:21:08.716Z,99244.19
2023-04-12T07:23:35.247Z,99236.78
2023-04-12T07:26:02.403Z,99227.66
2023-04-12T07:28:28.916Z,99238.00
2023-04-12T07:30:55.435Z,99230.56
2023-04-12T07:33:21.982Z,99223.13
2023-04-12T07:35:48.655Z,99221.91
2023-04-12T07:38:16.798Z,99219.00
2023-04-12T07:40:43.654Z,99209.69
2023-04-12T07:43:10.432Z,99209.50
2023-04-12T07:45:37.827Z,99198.34
2023-04-12T07:48:04.598Z,99200.59
2023-04-12T07:50:31.171Z,99193.81
2023-04-12T07:53:17.637Z,99195.66
2023-04-12T07:55:43.980Z,99186.16
2023-04-12T07:58:10.320Z,99176.84
2023-04-12T08:00:36.714Z,99178.91
2023-04-12T08:03:03.242Z,99179.09
2023-04-12T08:05:29.809Z,99183.03
2023-04-12T08:07:56.255Z,99181.56
2023-04-12T08:10:22.616Z,99190.91
2023-04-12T08:12:49.096Z,99179.72
2023-04-12T08:15:15.550Z,99172.03
2023-04-12T08:17:43.820Z,99173.72
2023-04-12T08:20:11.197Z,99162.13
2023-04-12T08:22:37.604Z,99162.72
2023-04-12T08:25:04.228Z,99161.72
2023-04-12T08:27:30.816Z,99150.72
2023-04-12T08:29:57.806Z,99160.88
2023-04-12T08:32:24.332Z,99150.53
2023-04-12T08:34:50.669Z,99150.09
2023-04-12T08:37:17.689Z,99145.75
2023-04-12T08:39:44.256Z,99150.25
2023-04-12T08:42:11.049Z,99145.91
2023-04-12T08:44:39.621Z,99143.19
2023-04-12T08:47:07.657Z,99131.56
2023-04-12T08:49:34.939Z,99145.22
2023-04-12T08:52:05.775Z,99134.03
2023-04-12T08:54:33.348Z,99131.31
2023-04-12T08:57:03.225Z,99130.31
2023-04-12T08:59:30.350Z,99129.47
2023-04-12T09:01:58.080Z,99122.44
2023-04-12T09:04:26.218Z,99123.69
2023-04-12T09:06:52.678Z,99130.31
2023-04-12T09:09:19.218Z,99114.41
2023-04-12T09:11:45.756Z,99109.41
2023-04-12T09:14:25.497Z,99122.28
2023-04-12T09:16:51.958Z,99114.84
2023-04-12T09:19:32.224Z,99102.63
2023-04-12T09:21:58.803Z,99106.56
2023-04-12T09:24:25.402Z,99102.22
2023-04-12T09:27:01.980Z,99091.47
2023-04-12T09:29:28.773Z,99096.84
2023-04-12T09:32:02.149Z,99092.88
2023-04-12T09:34:30.144Z,99097.25
2023-04-12T09:36:56.935Z,99079.00
2023-04-12T09:39:35.775Z,99083.16
2023-04-12T09:42:12.371Z,99088.31
2023-04-12T09:44:44.874Z,99078.16
2023-04-12T09:47:11.361Z,99092.22
2023-04-12T09:49:42.545Z,99084.78
2023-04-12T09:52:10.956Z,99082.09
2023-04-12T09:54:42.050Z,99077.72
2023-04-12T09:57:09.115Z,99076.06
2023-04-12T09:59:40.175Z,99064.50
2023-04-12T10:02:18.769Z,99073.38
2023-04-12T10:04:46.032Z,99071.72
2023-04-12T10:07:14.904Z,99072.34
2023-04-12T10:09:41.582Z,99071.91
2023-04-12T10:12:09.623Z,99074.16
2023-04-12T10:14:37.001Z,99070.00
2023-04-12T10:17:04.744Z,99073.97
2023-04-12T10:19:33.650Z,99067.09
2023-04-12T10:22:01.353Z,99065.63
2023-04-12T10:24:28.993Z,99066.84
2023-04-12T10:27:00.048Z,99053.97
2023-04-12T10:29:29.028Z,99058.72
2023-04-12T10:31:57.653Z,99056.41
2023-04-12T10:34:28.591Z,99062.41
2023-04-12T10:36:56.708Z,99050.16
2023-04-12T10:39:36.584Z,99050.13
2023-04-12T10:42:29.003Z,99055.88
2023-04-12T10:45:16.837Z,99045.97
2023-04-12T10:47:48.916Z,99037.63
2023-04-12T10:50:32.206Z,99037.63
2023-04-12T10:53:15.190Z,99042.41
2023-04-12T10:55:44.302Z,99045.34
2023-04-12T10:58:49.098Z,99035.81
2023-04-12T11:01:18.454Z,99035.00
2023-04-12T11:04:06.820Z,99031.47
2023-04-12T11:07:05.037Z,99041.22
2023-04-12T11:09:34.421Z,99040.56
2023-04-12T11:12:03.782Z,99041.75
2023-04-12T11:14:49.154Z,99040.66
2023-04-12T11:17:18.289Z,99037.09
2023-04-12T11:19:55.804Z,99036.00
2023-04-12T11:22:30.158Z,99034.53
2023-04-12T11:24:58.956Z,99033.25
2023-04-12T11:27:26.942Z,99030.31
2023-04-12T11:29:55.804Z,99029.06
2023-04-12T11:32:26.357Z,99023.25
2023-04-12T11:34:54.162Z,99027.34
2023-04-12T11:37:21.597Z,99026.06
2023-04-12T11:39:51.162Z,99025.41
2023-04-12T11:42:20.002Z,99029.09
2023-04-12T11:44:57.744Z,99030.06
2023-04-12T11:47:27.290Z,99025.22
2023-04-12T11:49:55.571Z,99025.97
2023-04-12T11:52:29.084Z,99017.63
2023-04-12T11:54:58.703Z,99014.63
2023-04-12T11:57:25.255Z,99018.00
2023-04-12T11:59:53.641Z,99015.72
2023-04-12T12:02:23.794Z,99016.50
2023-04-12T12:04:51.089Z,99005.66
2023-04-12T12:07:19.224Z,99017.00
2023-04-12T12:09:46.763Z,99010.72
2023-04-12T12:12:13.939Z,99018.16
2023-04-12T12:14:41.053Z,99012.75
2023-04-12T12:17:16.319Z,99019.00
2023-04-12T12:19:44.962Z,99008.91
2023-04-12T12:22:22.077Z,99016.06
2023-04-12T12:24:55.580Z,99005.97
2023-04-12T12:27:24.527Z,99006.06
2023-04-12T12:29:55.462Z,98998.63
2023-04-12T12:32:23.660Z,99003.34
2023-04-12T12:34:52.261Z,99000.75
2023-04-12T12:37:20.732Z,99000.03
2023-04-12T12:40:16.433Z,99007.91
2023-04-12T12:42:49.922Z,99006.88
2023-04-12T12:45:18.722Z,98996.53
2023-04-12T12:47:59.134Z,99006.97
2023-04-12T12:50:27.451Z,99010.66
2023-04-12T12:52:55.751Z,99005.59
2023-04-12T12:55:23.545Z,99009.72
2023-04-12T12:58:06.782Z,99004.91
2023-04-12T13:00:34.444Z,99003.25
2023-04-12T13:03:01.593Z,98999.50
2023-04-12T13:05:28.357Z,98999.84
2023-04-12T13:07:54.819Z,99000.75
2023-04-12T13:10:21.264Z,99005.34
2023-04-12T13:12:47.592Z,99006.53
2023-04-12T13:15:22.161Z,99005.00
2023-04-12T13:17:52.432Z,99000.91
2023-04-12T13:20:19.034Z,98993.03
2023-04-12T13:22:45.525Z,98986.78
2023-04-12T13:25:11.987Z,98981.13
2023-04-12T13:27:38.312Z,98968.41
2023-04-12T13:30:05.595Z,98973.19
2023-04-12T13:32:32.482Z,98974.72
2023-04-12T13:34:58.871Z,98973.75
2023-04-12T13:37:25.402Z,98970.59
2023-04-12T13:39:52.458Z,98959.75
2023-04-12T13:42:18.917Z,98962.47
2023-04-12T13:44:45.750Z,98951.03
2023-04-12T13:47:12.506Z,98956.94
2023-04-12T13:49:39.243Z,98951.66
2023-04-12T13:52:05.694Z,98949.09
2023-04-12T13:54:32.068Z,98939.19
2023-04-12T13:56:59.145Z,98943.47
2023-04-12T13:59:26.505Z,98954.78
2023-04-12T14:01:53.078Z,98953.09
2023-04-12T14:04:20.192Z,98948.28
2023-04-12T14:06:46.683Z,98942.16
2023-04-12T14:09:29.745Z,98942.81
2023-04-12T14:11:57.887Z,98935.88
2023-04-12T14:14:25.721Z,98934.34
2023-04-12T14:16:57.128Z,98933.63
2023-04-12T14:19:24.180Z,98935.84
2023-04-12T14:21:50.864Z,98939.94
2023-04-12T14:24:18.386Z,98940.31
2023-04-12T14:26:45.286Z,98938.75
2023-04-12T14:29:11.982Z,98933.47
2023-04-12T14:31:39.729Z,98937.09
2023-04-12T14:34:08.496Z,98936.97
2023-04-12T14:36:34.982Z,98938.94
2023-04-12T14:39:04.064Z,98944.19
2023-04-12T14:41:31.541Z,98942.16
2023-04-12T14:44:01.502Z,98956.41
2023-04-12T14:46:28.425Z,98950.22
2023-04-12T14:48:55.314Z,98958.44
2023-04-12T14:51:22.488Z,98954.19
2023-04-12T14:53:49.564Z,98956.91
2023-04-12T14:56:23.834Z,98964.22
2023-04-12T14:58:53.977Z,98965.28
2023-04-12T15:01:21.711Z,98968.47
2023-04-12T15:03:48.271Z,98960.00
2023-04-12T15:06:15.462Z,98972.41
2023-04-12T15:08:41.869Z,99016.47
2023-04-12T15:11:12.533Z,99020.31
2023-04-12T15:13:39.901Z,99040.16
2023-04-12T15:16:10.084Z,99047.59
2023-04-12T15:18:41.565Z,99050.19
2023-04-12T15:21:10.290Z,99050.19
2023-04-12T15:23:36.891Z,99057.34
2023-04-12T15:26:03.604Z,99060.97
2023-04-12T15:28:31.485Z,99066.72
2023-04-12T15:30:58.852Z,99068.44
2023-04-12T15:33:25.834Z,99078.66
2023-04-12T15:35:56.361Z,99077.78
2023-04-12T15:38:24.540Z,99075.91
2023-04-12T15:40:55.791Z,99079.75
2023-04-12T15:43:23.197Z,99074.84
2023-04-12T15:45:53.127Z,99079.06
2023-04-12T15:48:23.598Z,99088.63
2023-04-12T15:50:50.996Z,99097.38
2023-04-12T15:53:21.325Z,99083.50
2023-04-12T15:55:48.558Z,99091.00
2023-04-12T15:58:15.084Z,99103.59
2023-04-12T16:00:42.261Z,99118.50
2023-04-12T16:03:09.061Z,99122.66
2023-04-12T16:05:35.904Z,99115.81
2023-04-12T16:08:02.758Z,99125.94
2023-04-12T16:10:30.257Z,99132.38
2023-04-12T16:12:57.064Z,99137.75
2023-04-12T16:15:23.471Z,99141.25
2023-04-12T16:17:55.278Z,99147.47
2023-04-12T16:20:22.345Z,99144.56
2023-04-12T16:22:55.912Z,99151.38
2023-04-12T16:25:24.302Z,99158.44
2023-04-12T16:27:51.391Z,99154.50
2023-04-12T16:30:18.109Z,99155.13
2023-04-12T16:32:46.746Z,99153.88
2023-04-12T16:35:16.909Z,99154.47
2023-04-12T16:37:44.714Z,99155.09
2023-04-12T16:40:14.908Z,99159.47
2023-04-12T16:42:42.638Z,99164.84
2023-04-12T16:45:10.690Z,99165.66
2023-04-12T16:47:37.610Z,99167.72
2023-04-12T16:50:05.006Z,99164.41
2023-04-12T16:52:31.844Z,99169.38
2023-04-12T16:54:58.663Z,99149.13
2023-04-12T16:57:25.192Z,99136.69
2023-04-12T16:59:51.541Z,99137.53
2023-04-12T17:02:17.945Z,99139.19
2023-04-12T17:04:44.469Z,99146.22
2023-04-12T17:07:10.902Z,99141.25
2023-04-12T17:09:37.248Z,99144.34
2023-04-12T17:12:03.802Z,99146.38
2023-04-12T17:14:30.768Z,99136.03
2023-04-12T17:16:57.671Z,99128.34
2023-04-12T17:19:24.184Z,99144.44
2023-04-12T17:21:51.429Z,99153.78
2023-04-12T17:24:17.848Z,99159.78
2023-04-12T17:26:44.668Z,99158.09
2023-04-12T17:29:11.309Z,99156.47
2023-04-12T17:31:39.012Z,99160.59
2023-04-12T17:34:05.662Z,99163.72
2023-04-12T17:36:33.705Z,99165.41
2023-04-12T17:39:02.735Z,99155.25
2023-04-12T17:41:29.140Z,99152.38
2023-04-12T17:43:55.766Z,99159.41
2023-04-12T17:46:24.025Z,99172.47
2023-04-12T17:48:50.448Z,99167.09
2023-04-12T17:51:17.119Z,99172.25
2023-04-12T17:53:43.523Z,99175.78
2023-04-12T17:56:10.346Z,99166.06
2023-04-12T17:58:37.065Z,99162.78
2023-04-12T18:01:03.601Z,99168.97
2023-04-12T18:03:30.178Z,99161.09
2023-04-12T18:05:58.893Z,99145.81
2023-04-12T18:08:25.316Z,99135.66
2023-04-12T18:10:52.395Z,99140.00
2023-04-12T18:13:19.137Z,99134.22
2023-04-12T18:15:45.515Z,99119.53
2023-04-12T18:18:12.428Z,99120.13
2023-04-12T18:20:39.345Z,99128.00
2023-04-12T18:23:05.883Z,99125.91
2023-04-12T18:25:32.338Z,99132.69
2023-04-12T18:27:58.974Z,99127.09
2023-04-12T18:30:25.568Z,99134.94
2023-04-12T18:32:52.020Z,99148.16
2023-04-12T18:35:18.446Z,99146.94
2023-04-12T18:37:45.203Z,99153.13
2023-04-12T18:40:12.254Z,99150.22
2023-04-12T18:42:38.712Z,99156.56
2023-04-12T18:45:05.551Z,99159.22
2023-04-12T18:47:32.024Z,99159.41
2023-04-12T18:49:58.427Z,99167.41
2023-04-12T18:52:24.763Z,99165.94
2023-04-12T18:54:51.264Z,99174.97
2023-04-12T18:57:17.858Z,99169.78
2023-04-12T18:59:47.636Z,99177.16
2023-04-12T19:02:15.066Z,99180.19
2023-04-12T19:04:42.001Z,99183.84
2023-04-12T19:07:08.441Z,99176.78
2023-04-12T19:09:34.776Z,99184.78
2023-04-12T19:12:02.953Z,99186.75
2023-04-12T19:14:30.441Z,99181.34
2023-04-12T19:16:57.284Z,99181.28
2023-04-12T19:19:23.955Z,99179.38
2023-04-12T19:21:50.543Z,99180.31
2023-04-12T19:24:17.318Z,99185.59
2023-04-12T19:26:47.233Z,99192.56
2023-04-12T19:29:17.609Z,99196.84
2023-04-12T19:31:45.767Z,99195.75
2023-04-12T19:34:13.871Z,99207.03
2023-04-12T19:36:43.215Z,99204.94
2023-04-12T19:39:09.886Z,99196.66
2023-04-12T19:41:36.323Z,99205.25
2023-04-12T19:44:02.797Z,99208.47
2023-04-12T19:46:29.166Z,99213.41
2023-04-12T19:48:55.539Z,99209.63
2023-04-12T19:51:21.920Z,99215.34
2023-04-12T19:53:50.421Z,99210.56
2023-04-12T19:56:16.762Z,99211.78
2023-04-12T19:58:44.304Z,99210.47
2023-04-12T20:01:10.768Z,99210.03
2023-04-12T20:03:38.726Z,99215.75
2023-04-12T20:06:05.352Z,99222.31
2023-04-12T20:08:31.952Z,99222.69
2023-04-12T20:10:58.930Z,99220.34
2023-04-12T20:13:25.297Z,99222.59
2023-04-12T20:15:51.637Z,99229.97
2023-04-12T20:18:18.201Z,99234.03
2023-04-12T20:20:44.870Z,99236.88
2023-04-12T20:23:12.605Z,99231.91
2023-04-12T20:25:41.568Z,99233.09
2023-04-12T20:28:09.017Z,99224.44
2023-04-12T20:30:39.943Z,99230.16
2023-04-12T20:33:06.944Z,99225.19
2023-04-12T20:35:33.366Z,99215.69
2023-04-12T20:38:00.099Z,99215.22
2023-04-12T20:40:29.850Z,99214.75
2023-04-12T20:42:56.786Z,99210.78
2023-04-12T20:45:23.425Z,99212.00
2023-04-12T20:47:49.887Z,99217.06
2023-04-12T20:50:17.514Z,99215.75
2023-04-12T20:52:45.413Z,99212.78
2023-04-12T20:55:13.982Z,99208.84
2023-04-12T20:57:40.688Z,99207.53
2023-04-12T21:00:18.075Z,99207.91
2023-04-12T21:02:45.823Z,99197.75
2023-04-12T21:05:13.478Z,99194.59
2023-04-12T21:07:41.273Z,99197.66
2023-04-12T21:10:12.092Z,99199.66
2023-04-12T21:12:39.871Z,99194.19
2023-04-12T21:15:07.522Z,99203.59
2023-04-12T21:17:35.579Z,99195.09
2023-04-12T21:20:04.212Z,99198.94
2023-04-12T21:22:31.005Z,99199.50
2023-04-12T21:24:57.346Z,99198.00
2023-04-12T21:27:23.992Z,99193.84
2023-04-12T21:29:50.383Z,99187.19
2023-04-12T21:32:16.943Z,99185.91
2023-04-12T21:34:43.581Z,99181.75
2023-04-12T21:37:10.842Z,99188.28
2023-04-12T21:39:39.219Z,99187.63
2023-04-12T21:42:05.655Z,99184.50
2023-04-12T21:44:32.098Z,99188.16
2023-04-12T21:46:58.510Z,99185.03
2023-04-12T21:49:24.950Z,99193.41
2023-04-12T21:51:52.323Z,99189.25
2023-04-12T21:54:19.876Z,99187.75
2023-04-12T21:56:46.340Z,99186.28
2023-04-12T21:59:12.729Z,99187.47
2023-04-12T22:01:39.311Z,99184.13
2023-04-12T22:04:06.022Z,99173.81
2023-04-12T22:06:32.552Z,99174.16
2023-04-12T22:09:02.513Z,99168.16
2023-04-12T22:11:30.500Z,99168.53
2023-04-12T22:13:57.833Z,99180.19
2023-04-12T22:16:24.673Z,99166.22
2023-04-12T22:18:51.155Z,99172.75
2023-04-12T22:21:17.714Z,99174.91
2023-04-12T22:23:44.975Z,99171.41
2023-04-12T22:26:12.431Z,99174.44
2023-04-12T22:28:39.277Z,99175.63
2023-04-12T22:31:06.479Z,99170.66
2023-04-12T22:33:33.338Z,99178.00
2023-04-12T22:36:02.042Z,99167.69
2023-04-12T22:38:28.663Z,99165.38
2023-04-12T22:41:01.937Z,99165.53
2023-04-12T22:43:41.551Z,99162.03
2023-04-12T22:46:15.638Z,99155.22
2023-04-12T22:48:49.113Z,99162.56
2023-04-12T22:51:15.681Z,99151.41
2023-04-12T22:53:43.221Z,99154.25
2023-04-12T22:56:09.742Z,99148.25
2023-04-12T22:58:37.227Z,99151.09
2023-04-12T23:01:06.610Z,99138.75
2023-04-12T23:03:33.126Z,99140.59
2023-04-12T23:06:00.144Z,99131.75
2023-04-12T23:08:26.561Z,99125.59
2023-04-12T23:10:53.295Z,99130.13
2023-04-12T23:13:19.833Z,99140.13
2023-04-12T23:15:46.297Z,99141.09
2023-04-12T23:18:12.889Z,99144.78
2023-04-12T23:20:40.406Z,99137.81
2023-04-12T23:23:06.898Z,99137.97
2023-04-12T23:25:41.537Z,99136.47
2023-04-12T23:28:13.959Z,99138.47
2023-04-12T23:30:48.734Z,99130.69
2023-04-12T23:33:20.590Z,99126.34
2023-04-12T23:35:58.836Z,99118.69
2023-04-12T23:38:32.001Z,99109.19
2023-04-12T23:41:04.199Z,99107.72
2023-04-12T23:43:32.436Z,99102.56
2023-04-12T23:45:58.986Z,99104.56
2023-04-12T23:48:25.621Z,99101.09
2023-04-12T23:50:52.158Z,99103.09
2023-04-12T23:53:19.183Z,99098.75
2023-04-12T23:55:51.063Z,99090.94
2023-04-12T23:58:18.210Z,99088.25
